Time;durP1;ratioP1;P1;durP2;ratioP2;P2;SDS_P1;SDS_P2;PMS_P1;PMS_P2;Temp;Humidity;BMP_temperature;BMP_pressure;BME280_temperature;BME280_humidity;BME280_pressure;Samples;Min_cycle;Max_cycle;Signal;HPM_P1;HPM_P2
2021/04/06 00:01:07;;;;;;;10.05;4.13;;;1.00;98.30;;;;;;4114280;28;20262;-86
2021/04/06 00:03:14;;;;;;;10.57;4.47;;;0.90;98.30;;;;;;4113667;28;20237;-86
2021/04/06 00:05:17;;;;;;;11.35;4.50;;;1.00;98.30;;;;;;4114479;28;20271;-86
2021/04/06 00:07:22;;;;;;;8.68;3.85;;;1.00;98.30;;;;;;4113460;28;20233;-86
2021/04/06 00:09:26;;;;;;;5.50;3.63;;;1.00;98.30;;;;;;4114483;28;20313;-86
2021/04/06 00:11:29;;;;;;;8.98;3.50;;;0.90;98.30;;;;;;4114219;28;20236;-86
2021/04/06 00:13:34;;;;;;;11.10;4.13;;;0.80;98.30;;;;;;4108607;28;20315;-86
2021/04/06 00:15:38;;;;;;;6.07;3.90;;;0.80;98.30;;;;;;4112664;28;20325;-86
2021/04/06 00:17:44;;;;;;;13.52;4.18;;;0.90;98.30;;;;;;4114728;28;20236;-86
2021/04/06 00:19:48;;;;;;;9.25;3.95;;;0.90;98.30;;;;;;4109884;28;20249;-85
2021/04/06 00:21:53;;;;;;;9.00;4.00;;;0.90;98.30;;;;;;4107608;28;20238;-86
2021/04/06 00:23:57;;;;;;;6.95;3.33;;;0.90;98.30;;;;;;4115096;28;20749;-86
2021/04/06 00:25:59;;;;;;;7.65;3.40;;;0.90;98.30;;;;;;4114821;28;20244;-86
2021/04/06 00:28:05;;;;;;;13.15;3.75;;;0.80;98.30;;;;;;4114685;28;20263;-87
2021/04/06 00:30:09;;;;;;;8.38;3.58;;;0.80;98.30;;;;;;4113133;28;20726;-86
2021/04/06 00:32:14;;;;;;;8.57;3.60;;;0.80;98.30;;;;;;4116075;28;20239;-87
2021/04/06 00:34:17;;;;;;;8.30;3.35;;;0.80;98.30;;;;;;4113803;28;20233;-86
2021/04/06 00:36:26;;;;;;;8.35;4.38;;;0.80;98.30;;;;;;4112618;28;20240;-87
2021/04/06 00:38:32;;;;;;;7.93;3.75;;;0.80;98.30;;;;;;4114156;28;20238;-86
2021/04/06 00:40:40;;;;;;;5.90;3.50;;;0.80;98.30;;;;;;4115413;28;20241;-86
2021/04/06 00:42:43;;;;;;;11.50;5.05;;;0.80;98.30;;;;;;4114235;28;20239;-86
2021/04/06 00:44:48;;;;;;;8.75;4.05;;;0.80;98.30;;;;;;4114557;28;20254;-86
2021/04/06 00:46:51;;;;;;;8.18;4.40;;;0.80;98.30;;;;;;4114638;28;20228;-86
2021/04/06 00:48:56;;;;;;;6.85;3.10;;;0.70;98.30;;;;;;4114226;28;20239;-86
2021/04/06 00:51:09;;;;;;;5.28;3.38;;;0.70;98.30;;;;;;4114276;28;20236;-86
2021/04/06 00:53:11;;;;;;;7.85;3.47;;;0.70;98.30;;;;;;4114539;28;20241;-86
2021/04/06 00:55:16;;;;;;;5.90;3.58;;;0.70;98.30;;;;;;4107005;28;20236;-86
2021/04/06 00:57:22;;;;;;;6.47;2.90;;;0.70;98.30;;;;;;4116054;28;20228;-86
2021/04/06 00:59:25;;;;;;;6.47;2.90;;;0.70;98.30;;;;;;4117445;28;20242;-83
2021/04/06 01:01:46;;;;;;;5.05;3.20;;;0.70;98.30;;;;;;4117692;28;20244;-84
2021/04/06 01:03:48;;;;;;;5.55;3.70;;;0.70;98.30;;;;;;4114278;28;20295;-84
2021/04/06 01:06:11;;;;;;;6.93;3.53;;;0.70;98.30;;;;;;4116386;28;20233;-84
2021/04/06 01:08:13;;;;;;;5.40;3.10;;;0.60;98.30;;;;;;4112251;28;20233;-84
2021/04/06 01:10:18;;;;;;;4.80;3.50;;;0.60;98.30;;;;;;4117052;28;20269;-84
2021/04/06 01:12:22;;;;;;;6.10;3.55;;;0.60;98.30;;;;;;4117907;28;20237;-84
2021/04/06 01:14:25;;;;;;;12.48;3.20;;;0.60;98.30;;;;;;4117536;28;20324;-84
2021/04/06 01:16:27;;;;;;;8.10;4.00;;;0.60;98.30;;;;;;4118369;28;20270;-83
2021/04/06 01:18:30;;;;;;;6.68;3.65;;;0.60;98.30;;;;;;4115388;28;20328;-85
2021/04/06 01:20:32;;;;;;;6.57;3.22;;;0.60;98.30;;;;;;4115792;28;20267;-86
2021/04/06 01:22:36;;;;;;;10.77;3.55;;;0.60;98.30;;;;;;4116522;28;20243;-85
2021/04/06 01:24:40;;;;;;;5.18;3.03;;;0.60;98.30;;;;;;4116958;28;20240;-86
2021/04/06 01:26:42;;;;;;;8.50;3.35;;;0.60;98.30;;;;;;4116590;28;20325;-86
2021/04/06 01:28:47;;;;;;;4.68;3.03;;;0.60;98.30;;;;;;4115657;28;20264;-85
2021/04/06 01:30:50;;;;;;;8.38;3.97;;;0.60;98.30;;;;;;4115103;28;20747;-84
2021/04/06 01:32:53;;;;;;;10.60;2.97;;;0.60;98.30;;;;;;4116739;28;20736;-84
2021/04/06 01:34:56;;;;;;;10.70;3.75;;;0.60;98.30;;;;;;4116710;28;20319;-86
2021/04/06 01:36:58;;;;;;;6.07;3.22;;;0.60;98.30;;;;;;4116936;28;20355;-86
2021/04/06 01:39:01;;;;;;;6.32;3.03;;;0.60;98.30;;;;;;4116654;28;20229;-86
2021/04/06 01:41:05;;;;;;;8.60;2.88;;;0.60;98.30;;;;;;4116174;28;20256;-86
2021/04/06 01:43:09;;;;;;;6.30;3.60;;;0.60;98.30;;;;;;4117117;28;20236;-87
2021/04/06 01:45:17;;;;;;;6.60;2.95;;;0.70;98.30;;;;;;4111219;28;20588;-86
2021/04/06 01:47:20;;;;;;;9.35;3.00;;;0.70;98.30;;;;;;4114338;28;20283;-86
2021/04/06 01:49:24;;;;;;;8.77;3.90;;;0.60;98.30;;;;;;4115694;28;20234;-86
2021/04/06 01:51:27;;;;;;;9.30;3.25;;;0.60;98.30;;;;;;4116139;28;20231;-84
2021/04/06 01:53:29;;;;;;;5.25;3.10;;;0.70;98.30;;;;;;4115825;28;20302;-85
2021/04/06 01:55:32;;;;;;;7.20;3.30;;;0.70;98.30;;;;;;4115672;28;20276;-84
2021/04/06 01:57:36;;;;;;;6.15;3.65;;;0.70;98.30;;;;;;4116534;28;20237;-84
2021/04/06 01:59:43;;;;;;;7.50;3.00;;;0.80;98.30;;;;;;4115516;28;20320;-84
2021/04/06 02:01:51;;;;;;;6.25;2.95;;;0.80;98.30;;;;;;4116500;28;20274;-84
2021/04/06 02:03:57;;;;;;;6.28;3.50;;;0.80;98.30;;;;;;4116772;28;20234;-84
2021/04/06 02:06:00;;;;;;;4.80;3.22;;;0.80;98.30;;;;;;4113764;28;20256;-84
2021/04/06 02:08:06;;;;;;;6.43;3.22;;;0.80;98.30;;;;;;4114066;28;20713;-83
2021/04/06 02:10:09;;;;;;;8.02;3.72;;;0.80;98.30;;;;;;4113353;28;20223;-83
2021/04/06 02:12:12;;;;;;;6.22;4.05;;;0.80;98.30;;;;;;4116240;28;20252;-84
2021/04/06 02:14:17;;;;;;;3.70;2.70;;;0.80;98.30;;;;;;4115813;28;20272;-85
2021/04/06 02:16:19;;;;;;;6.90;4.10;;;0.90;98.30;;;;;;4117365;28;20247;-85
2021/04/06 02:18:23;;;;;;;4.95;3.10;;;0.90;98.30;;;;;;4115458;28;20343;-84
2021/04/06 02:20:26;;;;;;;10.00;4.20;;;0.90;98.30;;;;;;4114115;28;20270;-83
2021/04/06 02:22:29;;;;;;;6.05;3.45;;;0.90;98.30;;;;;;4113873;28;20233;-84
2021/04/06 02:24:34;;;;;;;6.28;4.93;;;0.90;98.30;;;;;;4112360;28;21173;-83
2021/04/06 02:26:36;;;;;;;7.32;3.45;;;0.90;98.30;;;;;;4115001;28;20228;-84
2021/04/06 02:28:39;;;;;;;3.88;3.03;;;0.90;98.30;;;;;;4115378;28;20235;-84
2021/04/06 02:30:50;;;;;;;6.90;3.30;;;1.00;98.30;;;;;;4114484;28;20275;-85
2021/04/06 02:32:53;;;;;;;8.50;3.90;;;0.90;98.30;;;;;;4107607;28;20251;-83
2021/04/06 02:34:57;;;;;;;7.97;4.18;;;0.90;98.30;;;;;;4114608;28;20238;-84
2021/04/06 02:37:00;;;;;;;8.15;3.08;;;1.00;98.30;;;;;;4113438;28;20229;-84
2021/04/06 02:39:05;;;;;;;5.63;3.35;;;1.00;98.30;;;;;;4114431;28;20319;-84
2021/04/06 02:41:09;;;;;;;7.13;3.40;;;1.10;98.30;;;;;;4114537;28;20336;-83
2021/04/06 02:43:11;;;;;;;10.85;4.15;;;1.10;98.30;;;;;;4115269;28;20253;-83
2021/04/06 02:45:15;;;;;;;6.15;3.25;;;1.20;98.30;;;;;;4115560;28;20233;-83
2021/04/06 02:47:18;;;;;;;6.28;3.80;;;1.10;98.30;;;;;;4114584;28;20235;-83
2021/04/06 02:49:20;;;;;;;6.35;3.45;;;1.20;98.30;;;;;;4112966;28;20236;-84
2021/04/06 02:51:40;;;;;;;10.18;3.88;;;1.20;98.30;;;;;;4113860;28;20259;-84
2021/04/06 02:53:42;;;;;;;4.75;3.30;;;1.10;98.30;;;;;;4113609;28;20322;-84
2021/04/06 02:55:45;;;;;;;7.47;3.70;;;1.10;98.30;;;;;;4113860;28;20228;-84
2021/04/06 02:57:48;;;;;;;6.68;3.97;;;1.10;98.30;;;;;;4107305;28;20319;-84
2021/04/06 02:59:51;;;;;;;6.43;4.40;;;1.10;98.30;;;;;;4113598;28;20315;-84
2021/04/06 03:01:59;;;;;;;13.00;4.25;;;1.20;98.30;;;;;;4113590;28;20235;-84
2021/04/06 03:04:02;;;;;;;6.72;4.05;;;1.30;98.30;;;;;;4107854;28;20669;-84
2021/04/06 03:06:05;;;;;;;5.57;4.25;;;1.30;98.30;;;;;;4112080;28;20836;-84
2021/04/06 03:08:08;;;;;;;6.40;4.43;;;1.30;98.30;;;;;;4113981;28;20331;-84
2021/04/06 03:10:18;;;;;;;12.23;4.20;;;1.30;98.30;;;;;;4113847;28;20594;-84
2021/04/06 03:12:21;;;;;;;8.88;4.15;;;1.40;98.30;;;;;;4112207;28;20251;-84
2021/04/06 03:14:25;;;;;;;10.77;5.05;;;1.50;98.30;;;;;;4113723;28;20251;-84
2021/04/06 03:16:28;;;;;;;10.90;4.57;;;1.50;98.30;;;;;;4109357;28;20332;-85
2021/04/06 03:18:34;;;;;;;8.38;4.40;;;1.60;98.30;;;;;;4113706;28;20712;-84
2021/04/06 03:20:40;;;;;;;10.98;4.93;;;1.70;98.30;;;;;;4112927;28;20839;-84
2021/04/06 03:22:43;;;;;;;12.05;4.22;;;1.80;98.30;;;;;;4113215;28;20247;-84
2021/04/06 03:24:45;;;;;;;10.48;4.93;;;1.70;98.30;;;;;;4111812;28;20244;-83
2021/04/06 03:26:48;;;;;;;14.45;4.93;;;1.70;98.30;;;;;;4278723;23;20268;-80
2021/04/06 03:28:50;;;;;;;9.63;4.68;;;1.70;98.30;;;;;;4114568;28;20240;-80
2021/04/06 03:31:05;;;;;;;6.55;4.25;;;1.70;98.30;;;;;;4114358;28;20266;-80
2021/04/06 03:33:08;;;;;;;13.15;4.55;;;1.60;98.30;;;;;;4114613;28;20231;-80
2021/04/06 03:35:11;;;;;;;15.85;6.03;;;1.50;98.30;;;;;;4111355;28;20241;-80
2021/04/06 03:37:13;;;;;;;9.63;5.05;;;1.50;98.30;;;;;;4110676;28;20614;-80
2021/04/06 03:39:16;;;;;;;8.55;4.60;;;1.50;98.30;;;;;;4109563;28;20229;-81
2021/04/06 03:41:18;;;;;;;9.70;5.13;;;1.50;98.30;;;;;;4109502;28;20258;-80
2021/04/06 03:43:21;;;;;;;11.20;5.35;;;1.50;98.30;;;;;;4112704;28;20228;-80
2021/04/06 03:45:23;;;;;;;8.90;5.72;;;1.50;98.30;;;;;;4109060;28;20239;-80
2021/04/06 03:47:25;;;;;;;13.50;6.00;;;1.50;98.30;;;;;;4106144;28;20786;-80
2021/04/06 03:49:29;;;;;;;9.40;5.65;;;1.40;98.30;;;;;;4108710;28;20243;-80
2021/04/06 03:51:31;;;;;;;14.25;6.68;;;1.50;98.30;;;;;;4107879;28;20226;-80
2021/04/06 03:53:41;;;;;;;13.50;6.18;;;1.40;98.30;;;;;;4110100;28;20232;-80
2021/04/06 03:55:45;;;;;;;15.35;6.60;;;1.40;98.30;;;;;;4107523;28;20225;-80
2021/04/06 03:57:50;;;;;;;9.13;6.10;;;1.40;98.30;;;;;;4107649;28;20228;-80
2021/04/06 03:59:52;;;;;;;15.18;7.20;;;1.40;98.30;;;;;;4102502;28;20240;-79
2021/04/06 04:01:54;;;;;;;8.88;6.20;;;1.40;98.30;;;;;;4103601;28;20234;-80
2021/04/06 04:03:57;;;;;;;9.52;6.75;;;1.30;98.30;;;;;;4108417;28;20233;-80
2021/04/06 04:06:00;;;;;;;9.20;5.95;;;1.30;98.30;;;;;;4107316;28;20270;-80
2021/04/06 04:08:02;;;;;;;14.45;8.20;;;1.30;98.30;;;;;;4106168;28;20231;-80
2021/04/06 04:10:07;;;;;;;12.60;6.90;;;1.30;98.30;;;;;;4106675;28;20236;-80
2021/04/06 04:12:09;;;;;;;12.32;6.55;;;1.30;98.30;;;;;;4100975;28;20235;-80
2021/04/06 04:14:11;;;;;;;11.27;6.90;;;1.40;98.30;;;;;;4110686;28;20222;-80
2021/04/06 04:16:14;;;;;;;17.33;9.45;;;1.40;98.30;;;;;;4112852;28;20230;-80
2021/04/06 04:18:15;;;;;;;19.30;11.13;;;1.40;98.30;;;;;;4105652;28;20916;-80
2021/04/06 04:20:20;;;;;;;56.03;28.80;;;1.50;98.30;;;;;;4112948;28;20706;-80
2021/04/06 04:22:22;;;;;;;19.63;10.93;;;1.60;98.30;;;;;;4108996;28;20349;-80
2021/04/06 04:24:23;;;;;;;15.77;6.55;;;1.70;98.30;;;;;;4110452;28;20232;-81
2021/04/06 04:26:26;;;;;;;13.15;6.43;;;2.00;98.30;;;;;;4107669;28;20247;-80
2021/04/06 04:28:28;;;;;;;12.80;5.40;;;2.00;98.30;;;;;;4108375;28;20233;-81
2021/04/06 04:30:38;;;;;;;8.88;4.10;;;2.10;98.30;;;;;;4114918;28;20232;-80
2021/04/06 04:32:41;;;;;;;8.60;5.35;;;2.00;98.30;;;;;;4106807;28;20906;-80
2021/04/06 04:34:43;;;;;;;9.18;5.03;;;2.00;98.30;;;;;;4113735;28;20235;-80
2021/04/06 04:36:45;;;;;;;13.70;5.82;;;1.90;98.30;;;;;;4111604;28;20255;-80
2021/04/06 04:38:46;;;;;;;10.50;5.45;;;1.80;98.30;;;;;;4109812;28;20235;-81
2021/04/06 04:40:48;;;;;;;18.50;5.60;;;1.80;98.30;;;;;;4115095;28;20244;-79
2021/04/06 04:42:52;;;;;;;13.55;5.70;;;1.70;98.30;;;;;;4110120;28;20247;-80
2021/04/06 04:44:54;;;;;;;9.75;5.80;;;1.60;98.30;;;;;;4112884;28;20253;-80
2021/04/06 04:46:56;;;;;;;14.00;5.63;;;1.50;98.30;;;;;;4110809;28;20241;-80
2021/04/06 04:48:58;;;;;;;9.65;5.72;;;1.50;98.30;;;;;;4107545;28;20607;-81
2021/04/06 04:51:00;;;;;;;12.80;7.28;;;1.50;98.30;;;;;;4112246;28;20236;-80
2021/04/06 04:53:04;;;;;;;15.90;7.75;;;1.50;98.30;;;;;;4116276;28;20259;-80
2021/04/06 04:55:07;;;;;;;11.85;6.70;;;1.50;98.30;;;;;;4114667;28;20247;-81
2021/04/06 04:57:13;;;;;;;10.25;6.65;;;1.50;98.30;;;;;;4115084;28;20239;-81
2021/04/06 04:59:15;;;;;;;13.32;7.32;;;1.50;98.30;;;;;;4106982;28;20398;-80
2021/04/06 05:01:17;;;;;;;13.15;5.45;;;1.50;98.30;;;;;;4108651;28;20792;-79
2021/04/06 05:03:19;;;;;;;11.23;6.78;;;1.50;98.30;;;;;;4115826;28;20570;-80
2021/04/06 05:05:21;;;;;;;15.68;7.22;;;1.40;98.30;;;;;;4112211;28;20231;-81
2021/04/06 05:07:23;;;;;;;10.98;5.70;;;1.40;98.30;;;;;;4113788;28;20231;-80
2021/04/06 05:09:25;;;;;;;17.45;7.63;;;1.50;98.30;;;;;;4105757;28;20318;-80
2021/04/06 05:11:28;;;;;;;11.00;6.10;;;1.50;98.30;;;;;;4107693;28;20244;-82
2021/04/06 05:13:30;;;;;;;20.50;7.80;;;1.60;98.30;;;;;;4108620;28;20232;-81
2021/04/06 05:15:33;;;;;;;14.05;4.80;;;1.70;98.30;;;;;;4111414;28;20707;-80
2021/04/06 05:17:36;;;;;;;9.63;5.50;;;1.80;98.30;;;;;;4110962;28;20240;-80
2021/04/06 05:19:38;;;;;;;14.60;5.43;;;1.80;98.30;;;;;;4110503;28;20235;-80
2021/04/06 05:21:40;;;;;;;12.30;4.95;;;1.80;98.30;;;;;;4111270;28;20239;-80
2021/04/06 05:23:42;;;;;;;9.60;5.22;;;1.90;98.30;;;;;;4112324;28;20240;-80
2021/04/06 05:25:47;;;;;;;13.15;4.68;;;1.90;98.30;;;;;;4113472;28;20232;-80
2021/04/06 05:27:49;;;;;;;18.67;5.65;;;1.90;98.30;;;;;;4112278;28;20240;-79
2021/04/06 05:29:50;;;;;;;16.30;5.05;;;1.90;98.30;;;;;;4107912;28;20299;-79
2021/04/06 05:31:53;;;;;;;11.75;4.40;;;2.00;98.30;;;;;;4108343;28;20238;-80
2021/04/06 05:33:55;;;;;;;13.70;4.72;;;2.00;98.30;;;;;;4116729;28;20583;-80
2021/04/06 05:35:57;;;;;;;10.70;4.90;;;2.10;98.30;;;;;;4115137;28;20239;-80
2021/04/06 05:37:59;;;;;;;10.43;4.45;;;2.10;98.30;;;;;;4108342;28;20255;-81
2021/04/06 05:40:01;;;;;;;18.02;4.93;;;2.10;98.30;;;;;;4106480;28;20248;-80
2021/04/06 05:42:03;;;;;;;10.18;4.50;;;2.20;98.30;;;;;;4108088;28;20232;-80
2021/04/06 05:44:05;;;;;;;15.90;5.05;;;2.20;98.30;;;;;;4108633;28;20233;-80
2021/04/06 05:46:12;;;;;;;12.70;4.03;;;2.20;98.30;;;;;;4111853;28;20680;-80
2021/04/06 05:48:16;;;;;;;16.35;4.28;;;2.30;98.30;;;;;;4113163;28;20881;-79
2021/04/06 05:50:19;;;;;;;12.57;6.20;;;2.30;98.30;;;;;;4104929;28;20402;-79
2021/04/06 05:52:21;;;;;;;11.93;4.72;;;2.30;98.30;;;;;;4106168;28;20236;-80
2021/04/06 05:54:24;;;;;;;11.10;4.88;;;2.40;98.30;;;;;;4107764;28;20269;-79
2021/04/06 05:56:26;;;;;;;13.70;4.63;;;2.50;98.30;;;;;;4112818;28;20775;-80
2021/04/06 05:58:28;;;;;;;11.23;3.70;;;2.60;98.30;;;;;;4109722;28;20233;-81
2021/04/06 06:00:30;;;;;;;10.60;4.15;;;2.60;98.30;;;;;;4098569;29;20329;-81
2021/04/06 06:02:32;;;;;;;15.13;4.93;;;2.70;98.30;;;;;;4106222;28;20236;-80
2021/04/06 06:04:36;;;;;;;11.95;5.20;;;2.70;98.30;;;;;;4105618;28;20321;-80
2021/04/06 06:06:38;;;;;;;9.40;4.80;;;2.70;98.30;;;;;;4103139;28;20237;-80
2021/04/06 06:08:40;;;;;;;10.10;4.45;;;2.70;98.30;;;;;;4108810;28;20244;-80
2021/04/06 06:10:42;;;;;;;9.52;4.90;;;2.80;98.30;;;;;;4106903;28;20739;-80
2021/04/06 06:12:45;;;;;;;11.07;4.75;;;2.80;98.30;;;;;;4109462;28;20236;-80
2021/04/06 06:14:48;;;;;;;9.10;4.15;;;2.90;98.30;;;;;;4109860;28;20228;-80
2021/04/06 06:16:50;;;;;;;12.98;5.90;;;3.10;98.30;;;;;;4107417;28;20236;-80
2021/04/06 06:18:58;;;;;;;13.15;4.60;;;3.20;98.30;;;;;;4112620;28;20239;-81
2021/04/06 06:21:01;;;;;;;25.67;5.78;;;3.40;98.30;;;;;;4111486;28;20246;-81
2021/04/06 06:23:19;;;;;;;9.55;4.35;;;3.70;98.30;;;;;;4109039;28;20237;-81
2021/04/06 06:25:21;;;;;;;9.48;4.15;;;4.00;98.30;;;;;;4101372;28;20240;-81
2021/04/06 06:27:34;;;;;;;8.07;4.10;;;3.90;98.30;;;;;;4103593;28;20248;-81
2021/04/06 06:29:36;;;;;;;39.15;20.08;;;3.60;98.30;;;;;;4107871;28;20233;-80
2021/04/06 06:31:43;;;;;;;11.65;5.15;;;3.10;98.30;;;;;;4109347;28;20240;-80
2021/04/06 06:33:45;;;;;;;6.63;3.75;;;2.90;98.30;;;;;;4107979;28;20243;-80
2021/04/06 06:35:50;;;;;;;8.93;3.45;;;2.70;98.30;;;;;;4106079;28;20271;-81
2021/04/06 06:37:54;;;;;;;5.88;3.20;;;2.60;98.30;;;;;;4111805;28;20241;-82
2021/04/06 06:40:04;;;;;;;5.45;2.90;;;2.40;98.30;;;;;;4107280;28;20233;-82
2021/04/06 06:42:08;;;;;;;8.38;3.22;;;2.30;98.30;;;;;;4105481;28;20322;-80
2021/04/06 06:44:10;;;;;;;12.02;3.75;;;2.30;98.30;;;;;;4112679;28;20255;-80
2021/04/06 06:46:19;;;;;;;7.60;3.40;;;2.40;98.30;;;;;;4107184;28;20228;-80
2021/04/06 06:48:29;;;;;;;7.95;3.05;;;2.40;98.30;;;;;;4109455;28;20307;-79
2021/04/06 06:50:30;;;;;;;8.90;3.13;;;2.50;98.30;;;;;;4097534;28;20288;-80
2021/04/06 06:52:33;;;;;;;11.43;3.38;;;2.70;98.30;;;;;;4107455;28;20232;-79
2021/04/06 06:54:39;;;;;;;6.90;3.70;;;2.80;98.30;;;;;;4103376;28;20271;-79
2021/04/06 06:56:42;;;;;;;8.63;3.55;;;3.00;98.30;;;;;;4109888;28;20232;-79
2021/04/06 06:58:44;;;;;;;5.03;2.70;;;3.10;98.30;;;;;;4102839;28;20273;-79
2021/04/06 07:00:52;;;;;;;8.50;3.10;;;3.10;98.30;;;;;;4103023;28;20237;-80
2021/04/06 07:02:59;;;;;;;5.10;2.50;;;2.90;98.30;;;;;;4102601;28;20256;-80
2021/04/06 07:05:13;;;;;;;5.40;3.25;;;2.90;98.30;;;;;;4102779;28;20240;-79
2021/04/06 07:07:21;;;;;;;3.42;2.60;;;2.80;98.30;;;;;;4097135;28;20268;-79
2021/04/06 07:09:25;;;;;;;10.02;3.30;;;2.90;98.30;;;;;;4096851;28;20237;-80
2021/04/06 07:11:31;;;;;;;6.10;3.22;;;3.00;98.30;;;;;;4098107;28;20641;-80
2021/04/06 07:13:34;;;;;;;5.53;3.15;;;3.30;98.30;;;;;;4099863;28;20234;-79
2021/04/06 07:15:41;;;;;;;7.47;3.15;;;3.40;98.30;;;;;;4102820;28;20344;-79
2021/04/06 07:17:44;;;;;;;47.95;24.50;;;3.50;98.30;;;;;;4097478;28;20328;-80
2021/04/06 07:19:47;;;;;;;9.18;4.80;;;3.70;98.30;;;;;;4104477;28;20232;-80
2021/04/06 07:21:53;;;;;;;8.65;3.60;;;3.70;98.30;;;;;;4105074;28;20237;-80
2021/04/06 07:24:19;;;;;;;6.30;3.25;;;3.70;98.30;;;;;;4106796;28;20537;-80
2021/04/06 07:26:25;;;;;;;8.82;4.25;;;3.60;98.30;;;;;;4104747;28;20734;-80
2021/04/06 07:28:31;;;;;;;14.48;3.70;;;3.60;98.30;;;;;;4106264;28;20595;-80
2021/04/06 07:30:33;;;;;;;5.22;3.05;;;3.50;98.30;;;;;;4097798;28;20229;-79
2021/04/06 07:32:36;;;;;;;7.90;3.70;;;3.20;98.30;;;;;;4108650;28;20284;-80
2021/04/06 07:34:39;;;;;;;9.25;4.60;;;3.00;98.30;;;;;;4108609;28;20241;-80
2021/04/06 07:36:42;;;;;;;11.55;3.88;;;2.80;98.30;;;;;;4111760;28;20787;-80
2021/04/06 07:38:47;;;;;;;9.60;4.15;;;2.90;98.30;;;;;;4113708;28;20600;-79
2021/04/06 07:40:51;;;;;;;9.68;3.97;;;2.80;98.30;;;;;;4106983;28;20261;-80
2021/04/06 07:42:54;;;;;;;11.35;3.90;;;2.70;98.30;;;;;;4110503;28;20241;-80
2021/04/06 07:44:57;;;;;;;8.55;4.00;;;2.60;98.30;;;;;;4109276;28;20242;-80
2021/04/06 07:46:59;;;;;;;8.55;4.15;;;2.50;98.30;;;;;;4113125;28;20287;-80
2021/04/06 07:49:03;;;;;;;10.32;5.38;;;2.60;98.30;;;;;;4108669;28;20587;-80
2021/04/06 07:51:24;;;;;;;15.85;6.32;;;2.60;98.30;;;;;;4109073;28;20236;-80
2021/04/06 07:53:27;;;;;;;19.30;5.13;;;2.50;98.30;;;;;;4111509;28;20235;-79
2021/04/06 07:55:42;;;;;;;10.07;4.65;;;2.40;98.30;;;;;;4108450;28;20255;-80
2021/04/06 07:57:48;;;;;;;13.82;4.60;;;2.30;98.30;;;;;;4108649;28;20228;-80
2021/04/06 07:59:54;;;;;;;17.40;5.47;;;2.30;98.30;;;;;;4106159;28;20237;-80
2021/04/06 08:02:21;;;;;;;9.32;4.18;;;2.40;98.30;;;;;;4102733;28;20237;-80
2021/04/06 08:04:24;;;;;;;12.50;4.00;;;2.50;98.30;;;;;;4108602;28;20233;-80
2021/04/06 08:06:27;;;;;;;6.75;3.95;;;2.60;98.30;;;;;;4113524;28;20232;-80
2021/04/06 08:08:35;;;;;;;9.70;5.03;;;2.80;98.30;;;;;;4114969;28;20241;-80
2021/04/06 08:10:39;;;;;;;8.60;3.60;;;2.90;98.30;;;;;;4118053;28;20241;-80
2021/04/06 08:12:42;;;;;;;7.80;3.60;;;2.90;98.30;;;;;;4117590;28;20225;-80
2021/04/06 08:14:46;;;;;;;9.38;3.88;;;2.90;98.30;;;;;;4118171;28;20698;-80
2021/04/06 08:17:10;;;;;;;8.00;3.47;;;2.80;98.30;;;;;;4115281;28;20343;-80
2021/04/06 08:19:13;;;;;;;4.10;2.80;;;2.70;98.30;;;;;;4114845;28;20229;-80
2021/04/06 08:21:15;;;;;;;6.20;3.70;;;2.60;98.30;;;;;;4114593;28;20307;-80
2021/04/06 08:23:40;;;;;;;9.70;3.92;;;2.60;98.30;;;;;;4116172;28;20244;-81
2021/04/06 08:25:52;;;;;;;9.18;3.15;;;2.60;98.30;;;;;;4113608;28;20279;-80
2021/04/06 08:27:55;;;;;;;8.77;3.50;;;2.70;98.30;;;;;;4115232;28;20233;-80
2021/04/06 08:30:25;;;;;;;11.90;4.45;;;2.70;98.30;;;;;;4114304;28;20232;-80
2021/04/06 08:32:27;;;;;;;11.63;5.43;;;2.80;98.30;;;;;;4113148;28;20665;-80
2021/04/06 08:34:30;;;;;;;20.25;11.27;;;2.70;98.30;;;;;;4113040;28;20242;-79
2021/04/06 08:36:33;;;;;;;33.65;16.83;;;2.70;98.30;;;;;;4115224;28;20553;-79
2021/04/06 08:38:45;;;;;;;13.18;5.50;;;2.80;98.30;;;;;;4113532;28;20668;-80
2021/04/06 08:40:51;;;;;;;10.27;4.18;;;2.90;98.30;;;;;;4107131;28;20240;-80
2021/04/06 08:42:56;;;;;;;9.00;3.70;;;3.20;98.30;;;;;;4117412;28;20241;-80
2021/04/06 08:44:59;;;;;;;9.75;4.78;;;3.50;98.30;;;;;;4116559;28;20233;-80
2021/04/06 08:47:02;;;;;;;5.95;2.95;;;3.50;98.30;;;;;;4114075;28;20288;-80
2021/04/06 08:49:12;;;;;;;9.25;2.95;;;3.50;98.30;;;;;;4105747;28;20241;-80
2021/04/06 08:51:22;;;;;;;8.40;3.00;;;3.60;98.30;;;;;;4117171;28;20552;-80
2021/04/06 08:53:26;;;;;;;9.38;3.20;;;3.70;98.30;;;;;;4109071;28;20229;-80
2021/04/06 08:55:28;;;;;;;12.63;5.45;;;3.90;98.30;;;;;;4118147;28;20369;-80
2021/04/06 08:57:30;;;;;;;7.53;3.45;;;4.20;98.30;;;;;;4115982;28;20239;-80
2021/04/06 08:59:34;;;;;;;9.55;3.30;;;4.60;98.30;;;;;;4113160;28;20324;-80
2021/04/06 09:01:37;;;;;;;10.15;3.70;;;4.90;98.30;;;;;;4113108;28;20292;-80
2021/04/06 09:03:39;;;;;;;6.82;3.28;;;5.30;98.30;;;;;;4113421;28;20249;-80
2021/04/06 09:05:42;;;;;;;9.05;3.00;;;5.70;98.30;;;;;;4113221;28;20253;-81
2021/04/06 09:07:46;;;;;;;44.60;27.55;;;5.80;98.30;;;;;;4116065;28;20325;-80
2021/04/06 09:09:50;;;;;;;13.35;7.72;;;5.70;98.30;;;;;;4113564;28;20243;-80
2021/04/06 09:11:53;;;;;;;10.50;3.42;;;5.80;98.30;;;;;;4113653;28;20247;-80
2021/04/06 09:13:55;;;;;;;4.70;2.40;;;5.60;98.30;;;;;;4112616;28;20264;-80
2021/04/06 09:16:00;;;;;;;4.70;2.60;;;5.70;98.30;;;;;;4111080;28;20509;-80
2021/04/06 09:18:02;;;;;;;6.72;2.85;;;5.60;98.30;;;;;;4110263;28;20483;-80
2021/04/06 09:20:09;;;;;;;5.63;3.50;;;5.60;98.30;;;;;;4104971;28;20265;-80
2021/04/06 09:22:13;;;;;;;3.77;2.80;;;5.80;98.30;;;;;;4111664;28;20229;-80
2021/04/06 09:24:17;;;;;;;6.07;2.35;;;5.60;98.30;;;;;;4110366;28;20776;-80
2021/04/06 09:26:19;;;;;;;3.83;2.58;;;4.60;98.30;;;;;;4154949;23;20951;-82
2021/04/06 09:28:21;;;;;;;5.80;2.70;;;4.00;98.30;;;;;;4133836;28;20236;-80
2021/04/06 09:30:32;;;;;;;8.30;2.75;;;3.60;98.30;;;;;;4131390;28;20232;-81
2021/04/06 09:32:39;;;;;;;4.93;2.35;;;3.50;98.30;;;;;;4134465;28;20233;-80
2021/04/06 09:34:44;;;;;;;8.63;2.83;;;3.40;98.30;;;;;;4132663;28;20243;-80
2021/04/06 09:36:54;;;;;;;6.00;2.90;;;3.50;98.30;;;;;;4132049;28;20237;-81
2021/04/06 09:38:56;;;;;;;11.43;2.90;;;3.60;98.30;;;;;;4129839;28;20239;-80
2021/04/06 09:40:59;;;;;;;6.85;2.65;;;3.90;98.30;;;;;;4130822;28;20342;-80
2021/04/06 09:43:01;;;;;;;10.63;2.90;;;4.30;98.30;;;;;;4133712;28;20231;-81
2021/04/06 09:45:04;;;;;;;4.07;2.60;;;4.60;98.30;;;;;;4130884;28;20635;-81
2021/04/06 09:47:10;;;;;;;7.93;2.65;;;4.90;98.30;;;;;;4132134;28;20248;-81
2021/04/06 09:49:13;;;;;;;6.32;3.25;;;5.00;98.30;;;;;;4132628;28;20246;-81
2021/04/06 09:51:33;;;;;;;4.93;2.63;;;5.10;98.30;;;;;;4131351;28;20330;-80
2021/04/06 09:53:36;;;;;;;9.10;4.03;;;5.40;98.30;;;;;;4131535;28;20228;-80
2021/04/06 09:55:40;;;;;;;5.50;2.50;;;5.70;98.30;;;;;;4131076;28;20247;-80
2021/04/06 09:57:46;;;;;;;3.30;2.50;;;5.80;98.30;;;;;;4127930;28;20507;-81
2021/04/06 09:59:53;;;;;;;6.10;2.63;;;6.10;98.30;;;;;;4131878;28;20493;-80
2021/04/06 10:01:57;;;;;;;6.40;3.43;;;6.30;98.30;;;;;;4129223;28;20600;-79
2021/04/06 10:04:02;;;;;;;12.27;3.53;;;6.00;98.30;;;;;;4132368;28;20506;-80
2021/04/06 10:06:06;;;;;;;4.63;2.20;;;5.70;98.30;;;;;;4130048;28;20618;-82
2021/04/06 10:08:08;;;;;;;3.30;1.80;;;5.30;98.30;;;;;;4132996;28;20498;-80
2021/04/06 10:10:21;;;;;;;4.00;3.38;;;5.10;98.30;;;;;;4132030;28;20827;-80
2021/04/06 10:12:24;;;;;;;4.40;2.10;;;4.80;98.30;;;;;;4129103;28;20250;-79
2021/04/06 10:14:27;;;;;;;4.47;2.15;;;4.50;98.30;;;;;;4128641;28;20247;-80
2021/04/06 10:16:33;;;;;;;10.05;5.03;;;4.50;98.30;;;;;;4129464;28;20254;-79
2021/04/06 10:18:41;;;;;;;6.40;3.88;;;4.40;98.30;;;;;;4128953;28;20326;-80
2021/04/06 10:20:45;;;;;;;5.32;2.38;;;4.40;98.30;;;;;;4130248;28;20235;-79
2021/04/06 10:22:49;;;;;;;5.43;2.20;;;4.60;98.30;;;;;;4132173;28;20239;-80
2021/04/06 10:24:55;;;;;;;4.10;2.67;;;4.70;98.30;;;;;;4131819;28;20239;-80
2021/04/06 10:27:13;;;;;;;4.80;2.45;;;4.80;98.30;;;;;;4130106;28;20807;-81
2021/04/06 10:29:15;;;;;;;6.82;2.65;;;4.90;98.30;;;;;;4131931;28;20228;-80
2021/04/06 10:31:18;;;;;;;6.15;2.40;;;5.00;98.30;;;;;;4131054;28;20236;-80
2021/04/06 10:33:24;;;;;;;5.65;2.42;;;5.40;98.30;;;;;;4129837;28;20232;-81
2021/04/06 10:35:28;;;;;;;5.73;2.20;;;5.70;98.30;;;;;;4130779;28;20254;-81
2021/04/06 10:37:46;;;;;;;4.50;2.77;;;5.80;98.30;;;;;;4129984;28;20491;-80
2021/04/06 10:39:50;;;;;;;4.43;2.07;;;6.10;98.30;;;;;;4129117;28;20513;-81
2021/04/06 10:41:52;;;;;;;7.53;2.40;;;6.40;98.30;;;;;;4129972;28;20488;-81
2021/04/06 10:43:55;;;;;;;3.63;1.83;;;6.90;98.30;;;;;;4129583;28;20671;-80
2021/04/06 10:46:03;;;;;;;6.13;3.07;;;7.20;98.30;;;;;;4131100;28;20492;-79
2021/04/06 10:48:10;;;;;;;4.23;2.00;;;7.20;98.30;;;;;;4130795;28;21131;-80
2021/04/06 10:50:12;;;;;;;10.83;2.83;;;7.30;98.30;;;;;;4128600;28;20493;-79
2021/04/06 10:52:14;;;;;;;10.40;2.70;;;6.50;98.30;;;;;;4130623;28;20597;-81
2021/04/06 10:54:16;;;;;;;9.47;2.90;;;5.90;98.30;;;;;;4129920;28;20948;-80